createdAt,value
2018-05-25T00:02:29.363Z,19.40
2018-05-25T00:07:32.612Z,19.30
2018-05-25T00:12:35.955Z,18.90
2018-05-25T00:17:39.985Z,18.90
2018-05-25T00:22:43.247Z,18.80
2018-05-25T00:27:46.544Z,18.80
2018-05-25T00:32:49.791Z,18.50
2018-05-25T00:37:53.811Z,18.50
2018-05-25T00:42:57.067Z,18.40
2018-05-25T00:48:00.332Z,18.60
2018-05-25T00:53:04.355Z,18.60
2018-05-25T00:58:08.391Z,18.70
2018-05-25T01:03:12.428Z,18.70
2018-05-25T01:08:15.688Z,18.60
2018-05-25T01:13:19.915Z,18.50
2018-05-25T01:18:23.174Z,18.40
2018-05-25T01:23:26.432Z,18.60
2018-05-25T01:28:29.690Z,18.70
2018-05-25T01:33:32.951Z,18.80
2018-05-25T01:38:36.211Z,18.70
2018-05-25T01:43:39.463Z,18.70
2018-05-25T01:48:42.722Z,18.80
2018-05-25T01:53:46.752Z,18.80
2018-05-25T01:58:50.019Z,18.70
2018-05-25T02:03:53.275Z,18.90
2018-05-25T02:08:56.545Z,19.00
2018-05-25T02:14:00.606Z,18.90
2018-05-25T02:19:03.890Z,18.90
2018-05-25T02:24:07.143Z,18.90
2018-05-25T02:29:10.404Z,18.90
2018-05-25T02:34:13.646Z,19.10
2018-05-25T02:39:16.896Z,19.00
2018-05-25T02:44:20.151Z,19.10
2018-05-25T02:49:24.182Z,18.90
2018-05-25T02:54:27.435Z,19.10
2018-05-25T02:59:30.699Z,19.10
2018-05-25T03:04:34.715Z,19.20
2018-05-25T03:09:38.735Z,19.00
2018-05-25T03:14:42.016Z,18.90
2018-05-25T03:19:46.199Z,18.90
2018-05-25T03:24:52.758Z,18.80
2018-05-25T03:29:56.003Z,19.00
2018-05-25T03:34:59.257Z,19.00
2018-05-25T03:40:02.524Z,19.10
2018-05-25T03:45:05.775Z,19.00
2018-05-25T03:50:09.075Z,19.00
2018-05-25T03:55:12.350Z,18.70
2018-05-25T04:00:27.376Z,18.60
2018-05-25T04:05:31.407Z,18.90
2018-05-25T04:10:34.655Z,18.90
2018-05-25T04:15:38.747Z,18.90
2018-05-25T04:20:42.784Z,18.90
2018-05-25T04:25:46.043Z,18.90
2018-05-25T04:30:49.298Z,18.90
2018-05-25T04:35:53.315Z,19.00
2018-05-25T04:40:56.580Z,19.00
2018-05-25T04:45:59.840Z,19.20
2018-05-25T04:51:03.879Z,19.20
2018-05-25T04:56:07.138Z,19.20
2018-05-25T05:01:10.427Z,19.30
2018-05-25T05:06:13.689Z,19.40
2018-05-25T05:11:17.735Z,20.00
2018-05-25T05:16:21.059Z,19.90
2018-05-25T05:21:24.348Z,20.40
2018-05-25T05:26:28.375Z,21.10
2018-05-25T05:31:31.659Z,21.10
2018-05-25T05:36:35.744Z,21.30
2018-05-25T05:41:38.989Z,21.70
2018-05-25T05:46:43.027Z,22.20
2018-05-25T05:51:47.064Z,22.60
2018-05-25T05:56:50.330Z,22.50
2018-05-25T06:01:54.394Z,22.90
2018-05-25T06:06:58.431Z,22.50
2018-05-25T06:12:01.713Z,22.50
2018-05-25T06:17:04.971Z,22.40
2018-05-25T06:22:08.259Z,23.00
2018-05-25T06:27:12.275Z,23.60
2018-05-25T06:32:16.298Z,22.70
2018-05-25T06:37:20.392Z,22.50
2018-05-25T06:42:23.648Z,22.40
2018-05-25T06:47:26.899Z,23.00
2018-05-25T06:52:30.186Z,22.80
2018-05-25T06:57:33.501Z,22.90
2018-05-25T07:02:36.726Z,22.20
2018-05-25T07:07:40.013Z,23.30
2018-05-25T07:12:43.395Z,23.80
2018-05-25T07:17:46.681Z,25.00
2018-05-25T07:22:50.699Z,25.30
2018-05-25T07:27:53.965Z,25.20
2018-05-25T07:32:58.527Z,24.20
2018-05-25T07:38:01.792Z,26.00
2018-05-25T07:43:05.830Z,25.50
2018-05-25T07:48:09.096Z,25.40
2018-05-25T07:53:12.425Z,26.30
2018-05-25T07:58:15.669Z,25.50
2018-05-25T08:03:18.967Z,26.10
2018-05-25T08:08:23.105Z,25.90
2018-05-25T08:13:26.389Z,25.10
2018-05-25T08:18:29.883Z,25.20
2018-05-25T08:23:34.019Z,26.60
2018-05-25T08:28:37.284Z,27.90
2018-05-25T08:33:40.575Z,28.30
2018-05-25T08:38:43.882Z,28.10
2018-05-25T08:43:48.691Z,28.80
2018-05-25T08:48:51.971Z,28.80
2018-05-25T08:53:55.263Z,28.60
2018-05-25T08:58:58.536Z,29.10
2018-05-25T09:04:01.830Z,30.90
2018-05-25T09:09:05.944Z,29.80
2018-05-25T09:14:09.988Z,27.30
2018-05-25T09:19:13.320Z,27.20
2018-05-25T09:24:16.614Z,28.60
2018-05-25T09:29:19.874Z,29.40
2018-05-25T09:34:23.167Z,27.80
2018-05-25T09:39:26.376Z,27.00
2018-05-25T09:44:29.634Z,29.10
2018-05-25T09:49:32.991Z,28.80
2018-05-25T09:54:36.758Z,31.20
2018-05-25T09:59:40.040Z,29.40
2018-05-25T10:04:43.295Z,28.90
2018-05-25T10:09:46.550Z,31.10
2018-05-25T10:14:49.816Z,30.70
2018-05-25T10:19:53.094Z,32.70
2018-05-25T10:24:56.355Z,33.10
2018-05-25T10:29:59.595Z,31.20
2018-05-25T10:35:03.637Z,30.30
2018-05-25T10:40:07.767Z,30.10
2018-05-25T10:45:11.792Z,34.60
2018-05-25T10:50:15.795Z,34.10
2018-05-25T10:55:19.061Z,34.00
2018-05-25T11:00:22.310Z,34.40
2018-05-25T11:05:25.571Z,32.00
2018-05-25T11:10:28.827Z,30.70
2018-05-25T11:15:32.075Z,32.20
2018-05-25T11:20:35.345Z,32.20
2018-05-25T11:25:39.361Z,33.00
2018-05-25T11:30:42.699Z,32.90
2018-05-25T11:35:51.671Z,31.40
2018-05-25T11:40:54.923Z,29.80
2018-05-25T11:45:58.891Z,33.40
2018-05-25T11:51:02.146Z,33.60
2018-05-25T11:56:05.399Z,33.60
2018-05-25T12:01:08.659Z,35.30
2018-05-25T12:06:11.911Z,34.90
2018-05-25T12:11:15.919Z,36.10
2018-05-25T12:16:19.972Z,36.60
2018-05-25T12:21:23.242Z,36.50
2018-05-25T12:26:26.504Z,35.80
2018-05-25T12:31:29.755Z,34.80
2018-05-25T12:36:33.043Z,33.60
2018-05-25T12:41:36.287Z,34.90
2018-05-25T12:46:40.308Z,37.20
2018-05-25T12:51:43.561Z,37.10
2018-05-25T12:56:46.861Z,37.80
2018-05-25T13:01:50.063Z,36.80
2018-05-25T13:06:53.323Z,34.60
2018-05-25T13:11:56.591Z,33.80
2018-05-25T13:16:59.855Z,33.00
2018-05-25T13:22:03.903Z,32.60
2018-05-25T13:27:07.158Z,32.40
2018-05-25T13:32:10.424Z,32.80
2018-05-25T13:37:13.686Z,31.40
2018-05-25T13:42:16.955Z,30.90
2018-05-25T13:47:20.207Z,31.60
2018-05-25T13:52:23.466Z,30.60
2018-05-25T13:57:26.719Z,31.90
2018-05-25T14:02:29.981Z,32.00
2018-05-25T14:07:33.228Z,32.40
2018-05-25T14:12:36.495Z,33.00
2018-05-25T14:17:39.743Z,34.20
2018-05-25T14:22:44.175Z,33.80
2018-05-25T14:27:47.442Z,32.00
2018-05-25T14:32:50.695Z,29.90
2018-05-25T14:37:54.005Z,29.80
2018-05-25T14:42:58.127Z,29.50
2018-05-25T14:48:01.355Z,31.00
2018-05-25T14:53:04.612Z,28.70
2018-05-25T14:58:07.866Z,29.30
2018-05-25T15:03:11.911Z,30.30
2018-05-25T15:08:15.163Z,30.20
2018-05-25T15:13:18.418Z,30.20
2018-05-25T15:18:21.684Z,30.20
2018-05-25T15:23:25.703Z,30.10
2018-05-25T15:28:28.973Z,30.00
2018-05-25T15:33:32.979Z,26.90
2018-05-25T15:38:38.464Z,26.80
2018-05-25T15:43:41.782Z,26.90
2018-05-25T15:48:45.031Z,28.20
2018-05-25T15:53:48.290Z,27.30
2018-05-25T15:58:51.595Z,28.60
2018-05-25T16:03:55.715Z,28.90
2018-05-25T16:08:59.403Z,29.70
2018-05-25T16:14:02.658Z,30.40
2018-05-25T16:19:05.923Z,31.60
2018-05-25T16:24:09.472Z,31.60
2018-05-25T16:29:13.492Z,31.40
2018-05-25T16:34:16.754Z,31.30
2018-05-25T16:39:20.935Z,32.30
2018-05-25T16:44:24.968Z,31.80
2018-05-25T16:49:29.014Z,31.00
2018-05-25T16:54:32.268Z,31.00
2018-05-25T16:59:35.519Z,30.20
2018-05-25T17:04:38.830Z,29.40
2018-05-25T17:09:42.083Z,28.70
2018-05-25T17:14:45.340Z,28.30
2018-05-25T17:19:48.606Z,27.70
2018-05-25T17:24:51.867Z,27.00
2018-05-25T17:29:55.123Z,27.70
2018-05-25T17:34:58.378Z,28.10
2018-05-25T17:40:01.663Z,28.10
2018-05-25T17:45:04.912Z,27.20
2018-05-25T17:50:08.171Z,27.10
2018-05-25T17:55:11.431Z,27.20
2018-05-25T18:00:14.695Z,27.20
2018-05-25T18:05:17.982Z,26.90
2018-05-25T18:10:21.307Z,26.40
2018-05-25T18:15:24.520Z,26.20
2018-05-25T18:20:28.535Z,26.10
2018-05-25T18:25:31.843Z,25.80
2018-05-25T18:30:35.886Z,25.70
2018-05-25T18:35:42.119Z,25.70
2018-05-25T18:40:45.388Z,25.60
2018-05-25T18:45:48.654Z,25.30
2018-05-25T18:50:51.916Z,24.80
2018-05-25T18:55:55.191Z,24.70
2018-05-25T19:00:58.451Z,24.50
2018-05-25T19:06:01.714Z,24.60
2018-05-25T19:11:05.760Z,24.10
2018-05-25T19:16:09.030Z,24.00
2018-05-25T19:21:12.285Z,24.10
2018-05-25T19:26:17.330Z,24.00
2018-05-25T19:31:21.347Z,23.90
2018-05-25T19:36:24.607Z,23.70
2018-05-25T19:41:27.890Z,23.70
2018-05-25T19:46:31.151Z,23.50
2018-05-25T19:51:35.202Z,23.10
2018-05-25T19:56:38.477Z,23.10
2018-05-25T20:01:41.769Z,23.10
2018-05-25T20:06:45.088Z,23.00
2018-05-25T20:11:48.431Z,23.00
2018-05-25T20:16:52.555Z,23.10
2018-05-25T20:21:56.591Z,22.90
2018-05-25T20:27:00.704Z,22.80
2018-05-25T20:32:03.994Z,22.80
2018-05-25T20:37:07.267Z,22.70
2018-05-25T20:42:10.604Z,22.70
2018-05-25T20:47:13.863Z,22.70
2018-05-25T20:52:17.120Z,22.70
2018-05-25T20:57:20.372Z,22.50
2018-05-25T21:02:23.632Z,22.40
2018-05-25T21:07:26.886Z,22.30
2018-05-25T21:12:30.147Z,22.10
2018-05-25T21:17:33.402Z,22.00
2018-05-25T21:22:36.658Z,22.10
2018-05-25T21:27:39.917Z,22.20
2018-05-25T21:32:43.945Z,22.10
2018-05-25T21:37:48.190Z,22.10
2018-05-25T21:42:51.495Z,22.10
2018-05-25T21:47:54.757Z,22.10
2018-05-25T21:52:58.008Z,21.90
2018-05-25T21:58:01.270Z,21.60
2018-05-25T22:03:04.519Z,21.80
2018-05-25T22:08:07.776Z,21.80
2018-05-25T22:13:11.931Z,22.00
2018-05-25T22:18:15.959Z,22.00
2018-05-25T22:23:19.979Z,21.80
2018-05-25T22:28:24.012Z,21.90
2018-05-25T22:33:27.313Z,21.80
2018-05-25T22:38:30.519Z,22.00
2018-05-25T22:43:48.464Z,22.10
2018-05-25T22:49:03.505Z,22.10
2018-05-25T22:54:11.857Z,22.00
2018-05-25T22:59:15.111Z,21.90
2018-05-25T23:04:18.398Z,21.90
2018-05-25T23:09:22.434Z,21.90
2018-05-25T23:14:25.711Z,21.90
2018-05-25T23:19:28.987Z,22.00
2018-05-25T23:24:33.004Z,21.80
2018-05-25T23:29:37.087Z,21.90
2018-05-25T23:34:41.183Z,22.00
2018-05-25T23:39:45.159Z,22.20
2018-05-25T23:44:48.436Z,22.20
2018-05-25T23:49:51.668Z,22.00
2018-05-25T23:54:55.819Z,21.80
2018-05-25T23:59:59.080Z,21.60
